createdAt,value
2023-03-20T00:02:53.806Z,1005.5
2023-03-20T00:07:59.881Z,1005.5
2023-03-20T00:13:05.980Z,1005.4
2023-03-20T00:18:12.071Z,1005.4
2023-03-20T00:23:18.172Z,1005.4
2023-03-20T00:28:24.270Z,1005.4
2023-03-20T00:33:29.375Z,1005.4
2023-03-20T00:38:35.486Z,1005.4
2023-03-20T00:43:41.579Z,1005.4
2023-03-20T00:48:47.661Z,1005.4
2023-03-20T00:53:53.756Z,1005.4
2023-03-20T00:59:00.211Z,1005.5
2023-03-20T01:04:04.979Z,1005.4
2023-03-20T01:09:11.063Z,1005.3
2023-03-20T01:14:17.169Z,1005.4
2023-03-20T01:19:23.246Z,1005.3
2023-03-20T01:24:29.339Z,1005.4
2023-03-20T01:29:35.445Z,1005.5
2023-03-20T01:34:41.543Z,1005.4
2023-03-20T01:39:47.634Z,1005.5
2023-03-20T01:44:53.742Z,1005.5
2023-03-20T01:49:59.825Z,1005.6
2023-03-20T02:00:12.027Z,1005.6
2023-03-20T02:05:18.130Z,1005.7
2023-03-20T02:10:23.238Z,1005.6
2023-03-20T02:15:29.306Z,1005.6
2023-03-20T02:20:35.418Z,1005.5
2023-03-20T02:25:41.578Z,1005.5
2023-03-20T02:30:47.622Z,1005.6
2023-03-20T02:35:53.717Z,1005.6
2023-03-20T02:40:59.945Z,1005.5
2023-03-20T02:46:05.896Z,1005.6
2023-03-20T02:51:11.983Z,1005.4
2023-03-20T02:56:18.104Z,1005.4
2023-03-20T03:01:24.198Z,1005.5
2023-03-20T03:06:30.287Z,1005.5
2023-03-20T03:11:36.372Z,1005.4
2023-03-20T03:16:41.498Z,1005.6
2023-03-20T03:21:47.609Z,1005.6
2023-03-20T03:26:53.678Z,1005.6
2023-03-20T03:31:59.775Z,1005.6
2023-03-20T03:37:05.886Z,1005.7
2023-03-20T03:42:11.957Z,1005.8
2023-03-20T03:47:18.067Z,1005.8
2023-03-20T03:52:24.161Z,1005.8
2023-03-20T03:57:30.340Z,1005.8
2023-03-20T04:02:36.343Z,1005.9
2023-03-20T04:07:42.437Z,1005.9
2023-03-20T04:12:48.558Z,1005.9
2023-03-20T04:17:54.644Z,1006
2023-03-20T04:22:59.760Z,1006
2023-03-20T04:28:05.843Z,1006.1
2023-03-20T04:33:11.951Z,1006
2023-03-20T04:38:18.105Z,1006
2023-03-20T04:43:24.155Z,1006.1
2023-03-20T04:48:30.243Z,1006.1
2023-03-20T04:53:36.325Z,1006.2
2023-03-20T04:58:42.409Z,1006.1
2023-03-20T05:03:48.515Z,1006.2
2023-03-20T05:08:54.610Z,1006.2
2023-03-20T05:14:00.699Z,1006.3
2023-03-20T05:19:06.796Z,1006.3
2023-03-20T05:24:12.902Z,1006.2
2023-03-20T05:29:17.997Z,1006.3
2023-03-20T05:34:24.155Z,1006.3
2023-03-20T05:39:30.198Z,1006.4
2023-03-20T05:44:36.309Z,1006.4
2023-03-20T05:49:42.387Z,1006.4
2023-03-20T05:54:48.486Z,1006.4
2023-03-20T05:59:54.590Z,1006.5
2023-03-20T06:05:00.689Z,1006.6
2023-03-20T06:10:06.794Z,1006.5
2023-03-20T06:15:12.884Z,1006.8
2023-03-20T06:20:18.956Z,1006.7
2023-03-20T06:25:25.062Z,1006.7
2023-03-20T06:30:31.153Z,1006.7
2023-03-20T06:35:36.291Z,1006.8
2023-03-20T06:40:42.351Z,1006.8
2023-03-20T06:45:48.446Z,1006.8
2023-03-20T06:50:54.551Z,1006.9
2023-03-20T06:56:00.647Z,1006.9
2023-03-20T07:01:06.739Z,1006.9
2023-03-20T07:06:12.829Z,1007
2023-03-20T07:11:18.927Z,1007
2023-03-20T07:16:25.037Z,1007.1
2023-03-20T07:21:31.138Z,1007.1
2023-03-20T07:26:37.225Z,1007.1
2023-03-20T07:31:43.317Z,1007.1
2023-03-20T07:36:49.429Z,1007.1
2023-03-20T07:41:54.589Z,1007.2
2023-03-20T07:47:00.608Z,1007.2
2023-03-20T07:52:06.712Z,1007.1
2023-03-20T07:57:12.882Z,1007.1
2023-03-20T08:02:18.969Z,1007.1
2023-03-20T08:07:25.029Z,1007.1
2023-03-20T08:12:31.143Z,1007.1
2023-03-20T08:17:37.239Z,1007.1
2023-03-20T08:22:43.295Z,1007.2
2023-03-20T08:27:49.412Z,1007.2
2023-03-20T08:32:55.469Z,1007.3
2023-03-20T08:38:01.632Z,1007.3
2023-03-20T08:43:07.776Z,1007.3
2023-03-20T08:48:12.764Z,1007.3
2023-03-20T08:53:18.879Z,1007.4
2023-03-20T08:58:25.083Z,1007.5
2023-03-20T09:03:31.101Z,1007.5
2023-03-20T09:08:37.244Z,1007.6
2023-03-20T09:13:43.412Z,1007.5
2023-03-20T09:18:49.336Z,1007.5
2023-03-20T09:23:55.445Z,1007.6
2023-03-20T09:29:01.530Z,1007.6
2023-03-20T09:34:07.630Z,1007.6
2023-03-20T09:39:13.732Z,1007.7
2023-03-20T09:44:19.833Z,1007.7
2023-03-20T09:49:25.926Z,1007.7
2023-03-20T09:54:31.054Z,1007.7
2023-03-20T09:59:37.130Z,1007.7
2023-03-20T10:04:43.224Z,1007.7
2023-03-20T10:09:49.458Z,1007.7
2023-03-20T10:14:55.416Z,1007.5
2023-03-20T10:20:01.512Z,1007.6
2023-03-20T10:25:07.623Z,1007.7
2023-03-20T10:30:13.706Z,1007.7
2023-03-20T10:35:19.815Z,1007.6
2023-03-20T10:40:25.885Z,1007.6
2023-03-20T10:45:31.982Z,1007.6
2023-03-20T10:50:38.086Z,1007.7
2023-03-20T10:55:44.162Z,1007.6
2023-03-20T11:00:49.280Z,1007.5
2023-03-20T11:05:55.384Z,1007.5
2023-03-20T11:11:01.476Z,1007.5
2023-03-20T11:16:07.568Z,1007.5
2023-03-20T11:21:13.658Z,1007.5
2023-03-20T11:26:19.761Z,1007.5
2023-03-20T11:31:25.862Z,1007.4
2023-03-20T11:36:31.961Z,1007.4
2023-03-20T11:41:38.062Z,1007.4
2023-03-20T11:46:44.180Z,1007.3
2023-03-20T11:51:50.231Z,1007.4
2023-03-20T11:56:56.373Z,1007.2
2023-03-20T12:02:02.442Z,1007.3
2023-03-20T12:07:07.550Z,1007.2
2023-03-20T12:12:13.626Z,1007.1
2023-03-20T12:17:19.741Z,1006.9
2023-03-20T12:22:25.840Z,1006.9
2023-03-20T12:27:31.923Z,1006.9
2023-03-20T12:32:38.019Z,1006.9
2023-03-20T12:37:44.103Z,1006.9
2023-03-20T12:47:56.302Z,1006.8
2023-03-20T12:53:02.393Z,1006.8
2023-03-20T12:58:08.510Z,1006.7
2023-03-20T13:03:14.584Z,1006.7
2023-03-20T13:08:20.697Z,1006.5
2023-03-20T13:13:25.787Z,1006.6
2023-03-20T13:18:31.886Z,1006.5
2023-03-20T13:23:37.990Z,1006.5
2023-03-20T13:28:44.090Z,1006.4
2023-03-20T13:33:50.183Z,1006.3
2023-03-20T13:44:02.361Z,1006.3
2023-03-20T13:49:08.496Z,1006.2
2023-03-20T13:54:14.570Z,1006.1
2023-03-20T13:59:20.681Z,1006.1
2023-03-20T14:04:26.790Z,1006
2023-03-20T14:09:32.993Z,1006
2023-03-20T14:14:39.040Z,1006
2023-03-20T14:19:44.053Z,1005.9
2023-03-20T14:24:50.147Z,1005.9
2023-03-20T14:29:56.251Z,1005.9
2023-03-20T14:35:02.344Z,1005.8
2023-03-20T14:40:08.499Z,1005.7
2023-03-20T14:45:14.563Z,1005.7
2023-03-20T14:50:20.627Z,1005.7
2023-03-20T14:55:26.831Z,1005.7
2023-03-20T15:00:32.821Z,1005.8
2023-03-20T15:05:38.963Z,1005.6
2023-03-20T15:10:45.010Z,1005.7
2023-03-20T15:15:51.118Z,1005.7
2023-03-20T15:20:57.249Z,1005.7
2023-03-20T15:26:02.335Z,1005.6
2023-03-20T15:31:08.410Z,1005.6
2023-03-20T15:41:20.717Z,1005.6
2023-03-20T15:46:26.748Z,1005.7
2023-03-20T15:51:32.854Z,1005.7
2023-03-20T15:56:38.882Z,1005.7
2023-03-20T16:01:45.096Z,1005.7
2023-03-20T16:06:51.089Z,1005.7
2023-03-20T16:11:57.231Z,1005.7
2023-03-20T16:17:03.306Z,1005.6
2023-03-20T16:22:09.399Z,1005.7
2023-03-20T16:27:15.455Z,1005.6
2023-03-20T16:32:20.565Z,1005.5
2023-03-20T16:37:26.689Z,1005.5
2023-03-20T16:42:32.797Z,1005.5
2023-03-20T16:47:38.887Z,1005.6
2023-03-20T16:52:45.022Z,1005.5
2023-03-20T16:57:51.084Z,1005.6
2023-03-20T17:02:57.139Z,1005.7
2023-03-20T17:08:03.225Z,1005.8
2023-03-20T17:13:09.359Z,1005.8
2023-03-20T17:18:15.433Z,1005.8
2023-03-20T17:23:21.522Z,1005.8
2023-03-20T17:28:27.716Z,1005.9
2023-03-20T17:33:33.730Z,1005.8
2023-03-20T17:38:38.805Z,1005.8
2023-03-20T17:43:44.968Z,1005.8
2023-03-20T17:48:51.011Z,1005.9
2023-03-20T17:53:57.106Z,1005.9
2023-03-20T17:59:03.256Z,1006
2023-03-20T18:04:09.493Z,1006.1
2023-03-20T18:09:14.511Z,1006.1
2023-03-20T18:14:20.506Z,1006.1
2023-03-20T18:19:26.599Z,1006.2
2023-03-20T18:24:32.718Z,1006.2
2023-03-20T18:29:38.802Z,1006.1
2023-03-20T18:34:44.917Z,1006.2
2023-03-20T18:39:51.019Z,1006.2
2023-03-20T18:44:57.081Z,1006.2
2023-03-20T18:50:03.179Z,1006.2
2023-03-20T18:55:09.275Z,1006.1
2023-03-20T19:00:15.392Z,1006.1
2023-03-20T19:05:21.483Z,1006.2
2023-03-20T19:10:27.565Z,1006.2
2023-03-20T19:15:32.669Z,1006.2
2023-03-20T19:20:38.790Z,1006.1
2023-03-20T19:25:44.913Z,1006.2
2023-03-20T19:30:50.966Z,1006.1
2023-03-20T19:35:57.113Z,1006.1
2023-03-20T19:41:03.167Z,1006.1
2023-03-20T19:46:09.266Z,1006.1
2023-03-20T19:51:15.339Z,1006.1
2023-03-20T19:56:21.492Z,1006.1
2023-03-20T20:01:27.703Z,1006.2
2023-03-20T20:06:33.631Z,1006.1
2023-03-20T20:11:39.764Z,1006.1
2023-03-20T20:16:46.033Z,1006.1
2023-03-20T20:21:51.908Z,1006.1
2023-03-20T20:26:57.027Z,1006.1
2023-03-20T20:37:09.216Z,1006.1
2023-03-20T20:42:15.316Z,1006
2023-03-20T20:52:27.504Z,1006.2
2023-03-20T20:57:33.598Z,1006.2
2023-03-20T21:02:39.691Z,1006.2
2023-03-20T21:07:45.783Z,1006.3
2023-03-20T21:12:51.894Z,1006.3
2023-03-20T21:17:57.984Z,1006.4
2023-03-20T21:23:04.064Z,1006.4
2023-03-20T21:28:10.186Z,1006.5
2023-03-20T21:33:15.274Z,1006.5
2023-03-20T21:38:21.383Z,1006.5
2023-03-20T21:43:27.482Z,1006.4
2023-03-20T21:48:33.587Z,1006.5
2023-03-20T21:53:39.685Z,1006.6
2023-03-20T21:58:45.751Z,1006.5
2023-03-20T22:03:51.853Z,1006.5
2023-03-20T22:08:57.936Z,1006.6
2023-03-20T22:14:04.047Z,1006.5
2023-03-20T22:19:10.126Z,1006.6
2023-03-20T22:24:16.239Z,1006.6
2023-03-20T22:29:22.325Z,1006.6
2023-03-20T22:34:28.421Z,1006.5
2023-03-20T22:39:33.542Z,1006.5
2023-03-20T22:44:39.646Z,1006.5
2023-03-20T22:49:45.744Z,1006.5
2023-03-20T22:54:51.826Z,1006.5
2023-03-20T22:59:57.932Z,1006.5
2023-03-20T23:05:04.028Z,1006.6
2023-03-20T23:10:10.122Z,1006.6
2023-03-20T23:15:16.209Z,1006.6
2023-03-20T23:20:22.301Z,1006.6
2023-03-20T23:25:28.401Z,1006.6
2023-03-20T23:30:34.504Z,1006.5
2023-03-20T23:35:40.595Z,1006.5
2023-03-20T23:40:46.698Z,1006.5
2023-03-20T23:45:51.820Z,1006.5
2023-03-20T23:50:57.959Z,1006.6
2023-03-20T23:56:04.192Z,1006.6
